Aeroporto :







RITROVATECI SU...

 
LOGIN :

Iscrizione | Disclaimer

   EN    FR    IT 

 









Sommario :    VFR   VFR Marginale   IFR   IFR Intensivo   IFR Molto Intensivo
Visibilità : 
Base nubi : 
>= 8 km
>= 3000ft
5 / 8 km
1000 / 3000 ft
1500m / 5 km
500 / 1000 ft
800 / 1500m
200 / 500 ft
< 800m
< 200 ft
Simboli :   Temporali  Nebbia  Neve Forte  Precipitazioni Forti  Vento > 20 kt






- Altitudine del aeroporto : 270 ft
- Codice IATA : YMX


CYMX - Montreal International Mirabel

ULTIMO METAR :
  • 181200Z 27004KT 210V340 45SM OVC027 07/03 A2968 RMK SC8 SLP056

METARs OBSOLETI :
  • 181100Z 28006KT 220V320 25SM OVC026 08/04 A2966 RMK SC8 SLP046
  • 181000Z 28005KT 230V320 25SM OVC030 08/04 A2963 RMK SC8 SLP036

TAF TAF CYMX
Valido dal 18 a 12 ore il 19 a 12 ore UTC


181138Z 1812/1912 28006KT P6SM OVC030
TEMPO 1812/1815 OVC020
BECMG 1812/1814 29010G20KT
FM181500 29010G20KT P6SM BKN030
BECMG 1822/1824 29006KT
FM190800 VRB03KT P6SM SCT030 RMK NXT FCST BY 181800Z



MetMap, La meteo Aeronautica in un colpo d'occhio ! - Copyright ORBIFLY Dicembre 2007 - Disclaimer

ORBIFLY MET'MAP TEAM :

Programmazione e sviluppo : Alexandra Zaïnal
Concezione e sviluppo : Baudouin d'Aumeries
Co-Programmazione e sviluppo : Marc-Olivier Méhu
Supporto tecnico e logistico : Manuel Goepfert
Aiuto per la traduzione : Arnaldo La Scala

Contatto : metmap@orbifly.com




FONTI E CREDITI :

   NOAA